Time;durP1;ratioP1;P1;durP2;ratioP2;P2;SDS_P1;SDS_P2;PMS_P1;PMS_P2;Temp;Humidity;BMP_temperature;BMP_pressure;BME280_temperature;BME280_humidity;BME280_pressure;Samples;Min_cycle;Max_cycle;Signal;HPM_P1;HPM_P2
2023/05/17 00:01:43;;;;;;;4.47;1.55;;;;;;;33.49;26.78;100923.41;4853326;29;20118;-77
2023/05/17 00:04:14;;;;;;;3.20;1.27;;;;;;;33.55;27.06;100923.00;4870536;29;20486;-75
2023/05/17 00:06:42;;;;;;;3.72;1.35;;;;;;;33.67;25.99;100920.50;4859736;29;20056;-77
2023/05/17 00:09:12;;;;;;;5.40;1.27;;;;;;;33.76;26.40;100918.06;4869958;29;20568;-77
2023/05/17 00:11:41;;;;;;;4.35;1.15;;;;;;;33.85;28.26;100919.31;4864825;29;20045;-74
2023/05/17 00:14:10;;;;;;;5.10;1.25;;;;;;;33.91;26.56;100916.22;4861086;29;20700;-78
2023/05/17 00:16:38;;;;;;;4.88;1.40;;;;;;;33.97;25.96;100910.47;4868062;29;20056;-76
2023/05/17 00:19:08;;;;;;;2.67;1.25;;;;;;;34.06;26.41;100908.09;4858237;29;20598;-76
2023/05/17 00:21:36;;;;;;;3.92;1.65;;;;;;;34.12;28.63;100913.09;4869363;29;20045;-77
2023/05/17 00:24:05;;;;;;;2.80;1.15;;;;;;;34.17;30.10;100906.44;4872449;29;20049;-75
2023/05/17 00:26:36;;;;;;;3.70;1.20;;;;;;;34.11;27.85;100904.19;4845542;29;20125;-77
2023/05/17 00:29:04;;;;;;;6.28;1.55;;;;;;;34.07;26.83;100899.09;4842171;29;20066;-73
2023/05/17 00:31:33;;;;;;;4.82;1.58;;;;;;;33.94;25.78;100891.84;4854219;29;20049;-78
2023/05/17 00:34:01;;;;;;;3.53;1.30;;;;;;;33.95;27.77;100898.09;4853532;29;20073;-74
2023/05/17 00:36:30;;;;;;;3.92;1.70;;;;;;;33.88;26.46;100900.34;4849344;29;20558;-74
2023/05/17 00:38:58;;;;;;;2.72;1.20;;;;;;;33.75;26.14;100902.09;4862891;29;20491;-80
2023/05/17 00:41:27;;;;;;;4.28;1.80;;;;;;;33.62;27.27;100901.16;4865336;29;20072;-79
2023/05/17 00:43:57;;;;;;;4.60;1.42;;;;;;;33.50;27.04;100903.66;4849243;29;20073;-77
2023/05/17 00:46:26;;;;;;;4.68;1.42;;;;;;;33.40;26.52;100897.19;4854517;29;20065;-80
2023/05/17 00:48:54;;;;;;;2.50;1.30;;;;;;;33.30;25.70;100888.84;4855297;29;20110;-78
2023/05/17 00:51:23;;;;;;;2.92;1.45;;;;;;;33.24;28.27;100894.59;4850046;29;20129;-77
2023/05/17 00:53:52;;;;;;;3.25;1.33;;;;;;;33.20;28.88;100897.59;4847959;29;20512;-76
2023/05/17 00:56:21;;;;;;;5.40;1.60;;;;;;;33.13;28.79;100895.28;4855171;29;20057;-76
2023/05/17 00:58:49;;;;;;;3.20;1.38;;;;;;;33.04;26.52;100886.94;4868203;29;20049;-75
2023/05/17 01:01:20;;;;;;;6.32;1.50;;;;;;;32.93;28.70;100891.13;4876142;29;20045;-77
2023/05/17 01:03:49;;;;;;;4.85;1.50;;;;;;;32.83;28.33;100895.34;4859462;29;20056;-79
2023/05/17 01:06:17;;;;;;;3.05;1.60;;;;;;;32.81;27.64;100881.19;4853993;29;20085;-79
2023/05/17 01:08:46;;;;;;;5.05;1.80;;;;;;;32.78;28.59;100889.41;4843008;29;20085;-77
2023/05/17 01:11:27;;;;;;;5.38;1.30;;;;;;;32.74;25.68;100886.06;4849209;29;20726;-79
2023/05/17 01:14:03;;;;;;;3.63;1.60;;;;;;;32.66;27.77;100880.28;4850311;29;20057;-77
2023/05/17 01:16:37;;;;;;;5.10;1.60;;;;;;;32.55;28.00;100858.66;4847318;29;20424;-81
2023/05/17 01:19:19;;;;;;;3.83;1.30;;;;;;;32.59;28.43;100875.41;4845149;29;20208;-78
2023/05/17 01:22:04;;;;;;;4.20;1.60;;;;;;;32.54;26.74;100865.81;4852554;29;20053;-82
2023/05/17 01:24:46;;;;;;;3.13;1.38;;;;;;;32.54;28.39;100859.63;4860393;29;20053;-77
2023/05/17 01:27:17;;;;;;;3.10;1.40;;;;;;;32.58;28.44;100862.97;4840610;29;20062;-78
2023/05/17 01:29:46;;;;;;;;;;;;;;;32.57;28.96;100861.25;4838743;29;20450;-76
2023/05/17 01:32:21;;;;;;;3.40;1.63;;;;;;;32.53;28.56;100857.91;4841110;29;20009;-79
2023/05/17 01:34:50;;;;;;;5.68;1.80;;;;;;;32.49;29.45;100864.38;4839980;29;20046;-77
2023/05/17 01:37:18;;;;;;;6.53;1.80;;;;;;;32.42;28.45;100868.38;4841095;29;20066;-75
2023/05/17 01:39:48;;;;;;;4.25;1.40;;;;;;;32.25;28.83;100861.34;4838608;29;20500;-75
2023/05/17 01:42:24;;;;;;;2.42;1.40;;;;;;;32.00;27.95;100859.25;4839062;29;20451;-75
2023/05/17 01:45:08;;;;;;;3.97;1.60;;;;;;;31.67;28.98;100862.91;4830857;29;20389;-78
2023/05/17 01:47:43;;;;;;;2.58;1.55;;;;;;;31.54;29.43;100853.84;4839595;29;20054;-81
2023/05/17 01:50:15;;;;;;;2.47;1.70;;;;;;;31.48;29.90;100850.59;4839724;29;20112;-78
2023/05/17 01:52:51;;;;;;;2.80;1.73;;;;;;;31.39;29.27;100845.72;4838483;29;20053;-77
2023/05/17 01:55:27;;;;;;;6.07;1.70;;;;;;;31.25;29.23;100845.63;4839640;29;20052;-79
2023/05/17 01:57:58;;;;;;;2.65;1.65;;;;;;;31.21;30.73;100852.09;4839204;29;20664;-76
2023/05/17 02:00:29;;;;;;;3.20;1.83;;;;;;;31.16;32.03;100848.81;4839690;29;20521;-79
2023/05/17 02:02:58;;;;;;;5.05;1.52;;;;;;;31.12;31.70;100842.78;4839813;29;20058;-75
2023/05/17 02:05:26;;;;;;;3.38;1.67;;;;;;;31.01;31.38;100843.34;4841704;29;20061;-78
2023/05/17 02:07:55;;;;;;;5.80;2.05;;;;;;;30.95;33.27;100838.38;4842938;29;20147;-75
2023/05/17 02:10:23;;;;;;;3.20;1.75;;;;;;;30.82;32.90;100851.47;4832777;29;20398;-76
2023/05/17 02:12:52;;;;;;;4.75;2.00;;;;;;;30.70;32.62;100846.81;4837609;29;20062;-78
2023/05/17 02:15:22;;;;;;;3.53;1.60;;;;;;;30.54;33.51;100838.75;4839171;29;20533;-78
2023/05/17 02:17:51;;;;;;;11.00;4.28;;;;;;;30.36;33.56;100853.06;4836461;29;20111;-75
2023/05/17 02:20:19;;;;;;;3.47;1.80;;;;;;;30.15;34.30;100853.16;4840637;29;20084;-79
2023/05/17 02:22:48;;;;;;;6.22;2.20;;;;;;;30.07;34.21;100852.69;4839125;29;20296;-78
2023/05/17 02:25:16;;;;;;;5.22;1.90;;;;;;;29.98;34.22;100858.47;4845070;29;20061;-76
2023/05/17 02:27:45;;;;;;;5.00;2.08;;;;;;;29.81;34.44;100862.00;4855768;29;20605;-82
2023/05/17 02:30:15;;;;;;;6.32;2.10;;;;;;;29.75;33.60;100859.63;4857066;29;20560;-77
2023/05/17 02:32:46;;;;;;;5.15;3.05;;;;;;;29.73;34.38;100865.03;4855089;29;20052;-78
2023/05/17 02:35:14;;;;;;;4.75;2.70;;;;;;;29.69;34.91;100867.91;4866602;29;20519;-77
2023/05/17 02:37:43;;;;;;;4.43;2.22;;;;;;;29.59;34.98;100870.13;4869637;29;20041;-78
2023/05/17 02:40:12;;;;;;;2.95;2.03;;;;;;;29.52;34.43;100874.88;4856900;29;20049;-78
2023/05/17 02:42:41;;;;;;;2.95;1.98;;;;;;;29.49;34.83;100877.72;4857839;29;20049;-77
2023/05/17 02:45:10;;;;;;;5.18;2.33;;;;;;;29.40;35.14;100876.34;4856474;29;20110;-77
2023/05/17 02:47:38;;;;;;;4.28;2.10;;;;;;;29.35;36.50;100883.69;4855900;29;20519;-77
2023/05/17 02:50:09;;;;;;;4.15;2.13;;;;;;;29.26;36.32;100889.47;4857528;29;20500;-77
2023/05/17 02:52:38;;;;;;;4.05;2.30;;;;;;;29.17;36.57;100889.88;4854305;29;20049;-79
2023/05/17 02:55:07;;;;;;;8.30;2.47;;;;;;;29.09;35.97;100889.34;4869150;29;20110;-79
2023/05/17 02:57:36;;;;;;;4.63;2.00;;;;;;;28.96;36.00;100889.91;4856373;29;20137;-79
2023/05/17 03:00:05;;;;;;;4.60;2.50;;;;;;;28.90;36.42;100894.63;4856292;29;20053;-79
2023/05/17 03:02:34;;;;;;;3.78;2.55;;;;;;;28.84;36.50;100901.09;4855313;29;20510;-78
2023/05/17 03:05:03;;;;;;;4.35;2.30;;;;;;;28.78;36.51;100901.38;4858114;29;20118;-77
2023/05/17 03:07:33;;;;;;;4.30;2.10;;;;;;;28.73;36.60;100903.38;4847495;29;20160;-76
2023/05/17 03:10:02;;;;;;;5.68;2.10;;;;;;;28.69;36.51;100904.44;4856080;29;20114;-75
2023/05/17 03:12:30;;;;;;;3.00;2.00;;;;;;;28.64;38.18;100909.97;4847638;29;20054;-76
2023/05/17 03:14:59;;;;;;;4.72;2.03;;;;;;;28.57;39.51;100914.69;4846920;29;20046;-74
2023/05/17 03:17:27;;;;;;;5.93;2.38;;;;;;;28.50;39.76;100918.53;4855215;29;20521;-74
2023/05/17 03:19:56;;;;;;;4.47;2.20;;;;;;;28.42;38.77;100921.47;4855250;29;20061;-74
2023/05/17 03:22:24;;;;;;;4.85;2.00;;;;;;;28.35;38.69;100913.84;4854792;29;20118;-73
2023/05/17 03:24:55;;;;;;;3.42;2.10;;;;;;;28.29;38.63;100917.63;4848862;29;20703;-74
2023/05/17 03:27:23;;;;;;;3.35;1.98;;;;;;;28.23;39.02;100920.53;4861066;29;20058;-75
2023/05/17 03:29:52;;;;;;;2.50;1.63;;;;;;;28.16;38.39;100917.25;4848323;29;20502;-74
2023/05/17 03:32:20;;;;;;;2.88;2.05;;;;;;;28.08;38.24;100921.16;4860053;29;20439;-75
2023/05/17 03:34:49;;;;;;;5.63;2.00;;;;;;;28.02;38.24;100921.44;4849699;29;20271;-76
2023/05/17 03:37:17;;;;;;;4.05;2.28;;;;;;;27.93;38.31;100922.66;4849157;29;20488;-77
2023/05/17 03:39:46;;;;;;;2.60;1.98;;;;;;;27.79;38.22;100915.19;4843353;29;20054;-76
2023/05/17 03:42:16;;;;;;;4.85;2.17;;;;;;;27.78;38.12;100932.06;4866357;29;20049;-76
2023/05/17 03:44:45;;;;;;;2.40;1.80;;;;;;;27.70;38.35;100927.06;4847944;29;20577;-74
2023/05/17 03:47:13;;;;;;;6.03;2.28;;;;;;;27.62;38.81;100923.81;4853215;29;20053;-78
2023/05/17 03:49:42;;;;;;;3.90;2.22;;;;;;;27.55;38.80;100927.66;4855637;29;20050;-76
2023/05/17 03:52:10;;;;;;;2.92;2.08;;;;;;;27.46;39.14;100922.69;4862873;29;20049;-74
2023/05/17 03:54:39;;;;;;;3.65;2.00;;;;;;;27.38;39.67;100924.78;4847515;29;20327;-75
2023/05/17 03:57:08;;;;;;;4.40;1.67;;;;;;;27.30;40.24;100927.72;4844518;29;20049;-77
2023/05/17 03:59:38;;;;;;;5.05;2.00;;;;;;;27.23;40.31;100929.72;4864160;29;20045;-77
2023/05/17 04:02:07;;;;;;;5.72;2.10;;;;;;;27.15;40.37;100929.13;4876600;29;20056;-76
2023/05/17 04:04:35;;;;;;;10.98;2.30;;;;;;;27.08;40.98;100938.25;4859906;29;20067;-80
2023/05/17 04:07:04;;;;;;;4.13;2.10;;;;;;;26.99;41.20;100936.78;4868713;29;20053;-77
2023/05/17 04:09:33;;;;;;;3.70;2.10;;;;;;;26.89;41.13;100944.22;4860235;29;20056;-77
2023/05/17 04:12:02;;;;;;;7.50;1.90;;;;;;;26.81;41.35;100938.31;4859914;29;20054;-75
2023/05/17 04:14:30;;;;;;;4.18;2.05;;;;;;;26.76;41.98;100945.56;4858276;29;20112;-77
2023/05/17 04:17:01;;;;;;;4.43;1.77;;;;;;;26.70;42.04;100948.41;4860696;29;20471;-77
2023/05/17 04:19:29;;;;;;;4.32;1.90;;;;;;;26.64;42.15;100949.50;4845612;29;20136;-76
2023/05/17 04:21:58;;;;;;;5.10;2.00;;;;;;;26.59;42.21;100953.22;4852552;29;20052;-76
2023/05/17 04:24:26;;;;;;;5.30;2.40;;;;;;;26.51;42.50;100959.63;4871822;29;20053;-76
2023/05/17 04:26:55;;;;;;;3.30;2.20;;;;;;;26.43;42.94;100959.00;4853074;29;20045;-78
2023/05/17 04:29:24;;;;;;;6.05;2.20;;;;;;;26.39;43.03;100970.66;4850450;29;20165;-77
2023/05/17 04:31:52;;;;;;;3.17;1.70;;;;;;;26.33;42.81;100963.75;4850733;29;20574;-76
2023/05/17 04:34:23;;;;;;;6.63;2.20;;;;;;;26.25;42.53;100970.22;4851535;29;20363;-75
2023/05/17 04:36:52;;;;;;;3.47;2.00;;;;;;;26.18;42.82;100974.00;4853472;29;20079;-76
2023/05/17 04:39:21;;;;;;;3.95;2.08;;;;;;;26.10;42.77;100980.41;4859758;29;20547;-75
2023/05/17 04:41:50;;;;;;;3.10;1.90;;;;;;;26.04;42.64;100974.44;4862939;29;20049;-77
2023/05/17 04:44:18;;;;;;;3.15;1.98;;;;;;;25.98;43.19;100982.59;4859086;29;20058;-76
2023/05/17 04:46:47;;;;;;;2.88;2.00;;;;;;;25.92;43.55;100973.03;4852037;29;20061;-75
2023/05/17 04:49:15;;;;;;;3.92;1.88;;;;;;;25.86;43.86;100975.81;4863166;29;20538;-75
2023/05/17 04:51:46;;;;;;;4.65;1.60;;;;;;;25.82;44.03;100979.50;4844744;29;20564;-75
2023/05/17 04:54:14;;;;;;;4.32;1.90;;;;;;;25.77;44.22;100979.66;4846982;29;20528;-76
2023/05/17 04:56:43;;;;;;;3.58;1.83;;;;;;;25.71;43.32;100972.75;4851026;29;20492;-75
2023/05/17 04:59:12;;;;;;;4.07;1.90;;;;;;;25.58;43.96;100955.47;4857014;29;20049;-75
2023/05/17 05:01:40;;;;;;;5.40;1.90;;;;;;;25.61;44.72;100973.94;4852565;29;20058;-75
2023/05/17 05:04:09;;;;;;;4.32;1.90;;;;;;;25.55;44.43;100967.94;4853680;29;20049;-75
2023/05/17 05:06:37;;;;;;;3.15;1.90;;;;;;;25.48;44.82;100970.75;4841601;29;20057;-75
2023/05/17 05:09:08;;;;;;;3.95;1.85;;;;;;;25.40;44.63;100963.94;4853460;29;20500;-75
2023/05/17 05:11:37;;;;;;;4.28;1.90;;;;;;;25.35;44.57;100964.09;4852087;29;20117;-74
2023/05/17 05:14:06;;;;;;;5.78;1.98;;;;;;;25.32;44.37;100965.97;4855993;29;20049;-75
2023/05/17 05:16:35;;;;;;;3.42;2.00;;;;;;;25.25;44.95;100966.13;4869425;29;20053;-75
2023/05/17 05:19:03;;;;;;;4.15;1.83;;;;;;;25.19;44.68;100963.63;4856644;29;20077;-74
2023/05/17 05:21:32;;;;;;;3.53;1.90;;;;;;;25.14;44.10;100965.53;4856970;29;20045;-74
2023/05/17 05:24:00;;;;;;;4.78;1.75;;;;;;;25.08;44.04;100974.53;4846233;29;20446;-74
2023/05/17 05:26:30;;;;;;;2.67;1.73;;;;;;;25.05;44.69;100971.06;4846799;29;20066;-74
2023/05/17 05:28:59;;;;;;;4.43;1.88;;;;;;;25.00;44.19;100978.28;4834647;29;20703;-76
2023/05/17 05:31:28;;;;;;;3.20;1.77;;;;;;;24.96;44.68;100973.97;4832323;29;20576;-76
2023/05/17 05:33:56;;;;;;;3.53;1.65;;;;;;;24.91;45.53;100984.69;4829739;29;20422;-75
2023/05/17 05:36:25;;;;;;;5.53;2.35;;;;;;;24.85;45.13;100980.44;4829357;29;20500;-74
2023/05/17 05:38:54;;;;;;;3.78;1.80;;;;;;;24.81;44.58;100981.41;4829964;29;20082;-74
2023/05/17 05:41:22;;;;;;;4.65;1.95;;;;;;;24.75;45.31;100973.63;4822878;29;20054;-74
2023/05/17 05:43:53;;;;;;;3.30;1.90;;;;;;;24.69;45.46;100976.41;4822101;29;20599;-75
2023/05/17 05:46:21;;;;;;;2.78;1.60;;;;;;;24.62;46.00;100973.09;4843528;29;20058;-74
2023/05/17 05:48:50;;;;;;;3.88;1.95;;;;;;;24.57;46.19;100980.25;4822869;29;20046;-74
2023/05/17 05:51:19;;;;;;;6.30;1.83;;;;;;;24.51;45.88;100974.22;4829271;29;20129;-74
2023/05/17 05:53:47;;;;;;;5.30;2.28;;;;;;;24.43;47.05;100972.63;4826339;29;20057;-74
2023/05/17 05:56:16;;;;;;;5.03;2.00;;;;;;;24.34;46.95;100970.19;4828901;29;20501;-73
2023/05/17 05:58:45;;;;;;;3.70;2.05;;;;;;;24.28;48.20;100973.00;4838488;29;20057;-75
2023/05/17 06:01:15;;;;;;;3.67;1.70;;;;;;;24.20;49.82;100969.66;4835630;29;20053;-75
2023/05/17 06:03:44;;;;;;;3.08;1.60;;;;;;;24.10;49.50;100979.59;4826851;29;20050;-75
2023/05/17 06:06:13;;;;;;;4.00;2.08;;;;;;;24.02;49.25;100992.09;4830717;29;20046;-75
2023/05/17 06:08:44;;;;;;;5.60;2.17;;;;;;;23.96;49.31;100981.66;4834920;29;20505;-75
2023/05/17 06:11:12;;;;;;;2.65;1.85;;;;;;;23.91;49.96;100979.13;4833088;29;20058;-74
2023/05/17 06:13:41;;;;;;;3.72;2.28;;;;;;;23.86;50.71;100974.84;4833306;29;20085;-75
2023/05/17 06:16:09;;;;;;;3.55;1.60;;;;;;;23.80;50.17;100966.16;4840185;29;20068;-75
2023/05/17 06:18:40;;;;;;;4.32;2.00;;;;;;;23.74;51.30;100982.13;4834142;29;20058;-75
2023/05/17 06:21:08;;;;;;;2.72;2.00;;;;;;;23.67;52.92;100977.00;4836680;29;20535;-76
2023/05/17 06:23:46;;;;;;;4.65;2.17;;;;;;;23.58;53.47;100980.69;4840663;29;20050;-75
2023/05/17 06:26:21;;;;;;;5.55;1.90;;;;;;;23.50;52.92;100982.63;4852248;29;20485;-75
2023/05/17 06:28:55;;;;;;;5.38;2.30;;;;;;;23.39;55.13;100972.28;4835360;29;20058;-75
2023/05/17 06:31:24;;;;;;;7.75;2.00;;;;;;;23.32;53.97;100970.66;4845181;29;20046;-75
2023/05/17 06:33:54;;;;;;;4.65;2.08;;;;;;;23.23;53.50;100969.09;4834722;29;20069;-74
2023/05/17 06:36:23;;;;;;;3.67;1.70;;;;;;;23.15;52.83;100976.25;4836956;29;20050;-75
2023/05/17 06:38:52;;;;;;;7.45;1.88;;;;;;;23.06;55.71;100972.03;4846712;29;20053;-75
2023/05/17 06:41:20;;;;;;;7.00;2.20;;;;;;;22.96;54.56;100975.72;4834950;29;20057;-74
2023/05/17 06:43:49;;;;;;;4.88;2.10;;;;;;;22.85;55.16;100972.41;4835935;29;20054;-75
2023/05/17 06:46:17;;;;;;;3.78;1.90;;;;;;;22.79;56.04;100971.63;4846402;29;20056;-75
2023/05/17 06:48:46;;;;;;;2.45;1.85;;;;;;;22.76;56.50;100971.66;4839603;29;20132;-74
2023/05/17 06:51:16;;;;;;;6.82;2.15;;;;;;;22.72;55.89;100974.38;4847265;29;20058;-75
2023/05/17 06:53:45;;;;;;;4.57;1.90;;;;;;;22.67;57.41;100974.44;4855528;29;20057;-75
2023/05/17 06:56:13;;;;;;;2.17;1.80;;;;;;;22.59;59.17;100981.63;4827348;29;20046;-75
2023/05/17 06:58:42;;;;;;;5.55;2.08;;;;;;;22.49;57.31;100990.56;4839176;29;20057;-75
2023/05/17 07:01:11;;;;;;;6.97;2.30;;;;;;;22.38;57.41;100981.09;4842292;29;20073;-76
2023/05/17 07:03:39;;;;;;;4.05;2.17;;;;;;;22.29;58.29;100983.88;4841375;29;20050;-76
2023/05/17 07:06:08;;;;;;;6.18;2.33;;;;;;;22.21;60.64;100982.19;4841177;29;20512;-75
2023/05/17 07:08:39;;;;;;;7.07;2.10;;;;;;;22.14;60.16;100986.69;4850461;29;20053;-75
2023/05/17 07:11:07;;;;;;;5.65;2.13;;;;;;;22.09;59.61;100983.25;4840788;29;20470;-75
2023/05/17 07:13:36;;;;;;;3.95;1.85;;;;;;;22.06;60.18;100985.91;4841047;29;20550;-75
2023/05/17 07:16:04;;;;;;;3.10;1.88;;;;;;;22.01;59.63;100983.34;4843589;29;20060;-76
2023/05/17 07:18:33;;;;;;;4.97;2.10;;;;;;;21.95;60.17;100979.03;4842693;29;20398;-75
2023/05/17 07:21:02;;;;;;;4.82;1.90;;;;;;;21.84;60.05;100980.94;4838579;29;20094;-75
2023/05/17 07:23:30;;;;;;;6.25;1.88;;;;;;;21.83;60.46;100987.13;4841674;29;20053;-76
2023/05/17 07:26:01;;;;;;;4.80;2.45;;;;;;;21.81;60.64;100990.69;4846954;29;20066;-75
2023/05/17 07:28:29;;;;;;;4.35;2.15;;;;;;;21.80;60.68;100999.44;4858591;29;20057;-75
2023/05/17 07:31:05;;;;;;;4.70;1.90;;;;;;;21.75;60.82;100988.97;4858977;29;20053;-74
2023/05/17 07:33:33;;;;;;;4.30;1.92;;;;;;;21.70;62.38;100988.16;4859431;29;20520;-75
2023/05/17 07:36:02;;;;;;;3.75;1.80;;;;;;;21.64;63.32;100982.97;4860953;29;20490;-74
2023/05/17 07:38:31;;;;;;;5.82;2.47;;;;;;;21.61;62.68;100983.03;4867299;29;20145;-75
2023/05/17 07:41:01;;;;;;;2.78;1.63;;;;;;;21.54;61.52;100976.97;4858686;29;20065;-75
2023/05/17 07:43:29;;;;;;;5.45;1.83;;;;;;;21.47;61.64;100972.66;4858148;29;20057;-76
2023/05/17 07:45:58;;;;;;;4.78;1.92;;;;;;;21.39;61.69;100966.56;4858426;29;20507;-76
2023/05/17 07:48:27;;;;;;;3.38;2.33;;;;;;;21.32;62.00;100958.72;4858748;29;20049;-76
2023/05/17 07:50:56;;;;;;;3.55;1.90;;;;;;;21.27;64.26;100967.59;4856948;29;20129;-76
2023/05/17 07:53:24;;;;;;;4.40;2.10;;;;;;;21.20;64.38;100966.78;4858102;29;20058;-75
2023/05/17 07:55:53;;;;;;;4.75;1.85;;;;;;;21.15;63.91;100973.00;4875858;29;20045;-77
2023/05/17 07:58:23;;;;;;;2.53;1.90;;;;;;;21.09;63.81;100976.53;4867706;29;20346;-76
2023/05/17 08:00:52;;;;;;;5.20;2.13;;;;;;;21.00;65.10;100972.25;4854583;29;20128;-77
2023/05/17 08:03:20;;;;;;;2.75;1.77;;;;;;;20.95;64.68;100971.44;4852932;29;20064;-75
2023/05/17 08:05:49;;;;;;;9.25;2.30;;;;;;;20.90;66.19;100973.25;4853424;29;20504;-76
2023/05/17 08:08:17;;;;;;;3.35;1.90;;;;;;;20.88;65.79;100969.75;4860826;29;20653;-75
2023/05/17 08:10:46;;;;;;;8.02;2.20;;;;;;;20.86;66.61;100979.41;4858989;29;20058;-76
2023/05/17 08:13:15;;;;;;;4.88;2.38;;;;;;;20.83;65.86;100977.69;4866700;29;20453;-75
2023/05/17 08:15:45;;;;;;;4.80;2.28;;;;;;;20.79;66.04;100988.25;4853295;29;20386;-75
2023/05/17 08:18:14;;;;;;;4.03;2.33;;;;;;;20.76;66.51;100988.28;4859350;29;20054;-75
2023/05/17 08:20:42;;;;;;;6.47;2.55;;;;;;;20.71;65.41;100983.94;4849586;29;20069;-75
2023/05/17 08:23:11;;;;;;;5.50;1.98;;;;;;;20.68;68.04;100980.44;4870678;29;20053;-76
2023/05/17 08:25:42;;;;;;;3.47;2.00;;;;;;;20.61;69.20;100987.50;4850648;29;20046;-76
2023/05/17 08:28:11;;;;;;;3.22;1.98;;;;;;;20.56;68.64;100980.53;4862834;29;20069;-75
2023/05/17 08:30:40;;;;;;;4.75;2.20;;;;;;;20.51;67.10;100983.19;4865876;29;20148;-77
2023/05/17 08:33:10;;;;;;;4.68;2.05;;;;;;;20.45;67.31;100977.97;4857992;29;20103;-76
2023/05/17 08:35:39;;;;;;;3.80;1.67;;;;;;;20.42;69.23;100978.00;4858397;29;20088;-76
2023/05/17 08:38:08;;;;;;;3.15;1.50;;;;;;;20.34;70.31;100982.44;4858621;29;20384;-76
2023/05/17 08:40:36;;;;;;;5.40;2.55;;;;;;;20.27;71.82;100984.22;4858538;29;20134;-75
2023/05/17 08:43:05;;;;;;;6.85;1.40;;;;;;;20.22;72.68;100981.63;4847196;29;20124;-76
2023/05/17 08:45:35;;;;;;;3.75;1.50;;;;;;;20.19;73.07;100984.28;4858135;29;20050;-76
2023/05/17 08:48:04;;;;;;;4.07;2.20;;;;;;;20.18;72.85;100976.41;4841941;29;20588;-76
2023/05/17 08:50:35;;;;;;;5.32;1.88;;;;;;;20.12;72.79;100972.06;4843273;29;20516;-75
2023/05/17 08:53:04;;;;;;;5.07;2.20;;;;;;;20.07;72.69;100979.13;4841479;29;20092;-75
2023/05/17 08:55:33;;;;;;;4.00;2.13;;;;;;;20.00;72.39;100977.41;4855540;29;20053;-76
2023/05/17 08:58:02;;;;;;;6.53;2.15;;;;;;;19.95;72.45;100981.81;4849173;29;20511;-76
2023/05/17 09:00:33;;;;;;;3.70;1.92;;;;;;;19.87;72.62;100976.59;4859137;29;20503;-75
2023/05/17 09:03:02;;;;;;;4.93;2.00;;;;;;;19.82;73.93;100968.75;4852435;29;20057;-76
2023/05/17 09:05:31;;;;;;;5.53;2.10;;;;;;;19.76;74.04;100978.41;4857061;29;20042;-76
2023/05/17 09:08:01;;;;;;;4.90;2.15;;;;;;;19.62;74.17;100976.69;4852234;29;20056;-75
2023/05/17 09:10:30;;;;;;;3.08;2.08;;;;;;;19.50;74.44;100971.50;4859909;29;20053;-76
2023/05/17 09:12:59;;;;;;;2.88;1.95;;;;;;;19.40;74.56;100975.00;4859356;29;20088;-76
2023/05/17 09:15:29;;;;;;;2.83;1.90;;;;;;;19.34;75.70;100975.91;4860817;29;20049;-76
2023/05/17 09:17:58;;;;;;;1.77;1.58;;;;;;;19.34;76.29;100980.28;4864962;29;20049;-75
2023/05/17 09:20:32;;;;;;;5.05;1.70;;;;;;;19.32;75.19;100974.19;4854892;29;20106;-75
2023/05/17 09:23:03;;;;;;;3.75;1.73;;;;;;;19.26;75.20;100977.66;4853251;29;20507;-76
2023/05/17 09:25:32;;;;;;;3.72;1.95;;;;;;;19.21;75.24;100975.06;4861798;29;20573;-74
2023/05/17 09:28:04;;;;;;;3.60;1.73;;;;;;;19.17;75.42;100969.81;4856414;29;20098;-75
2023/05/17 09:30:41;;;;;;;5.10;1.83;;;;;;;19.13;75.27;100970.75;4862950;29;20050;-76
2023/05/17 09:33:10;;;;;;;4.40;1.77;;;;;;;19.08;75.98;100969.84;4857809;29;20057;-78
2023/05/17 09:35:41;;;;;;;5.88;1.90;;;;;;;19.01;76.04;100969.88;4857540;29;20502;-76
2023/05/17 09:38:14;;;;;;;6.50;2.30;;;;;;;18.99;76.35;100969.00;4858566;29;20049;-76
2023/05/17 09:40:44;;;;;;;7.45;2.20;;;;;;;18.99;75.79;100974.25;4861732;29;20050;-76
2023/05/17 09:43:13;;;;;;;6.47;1.85;;;;;;;18.97;77.07;100965.50;4866525;29;20060;-76
2023/05/17 09:45:42;;;;;;;6.03;1.58;;;;;;;18.95;77.27;100967.25;4867505;29;20049;-76
2023/05/17 09:48:14;;;;;;;3.38;1.88;;;;;;;18.90;76.75;100965.50;4857605;29;20073;-76
2023/05/17 09:50:46;;;;;;;2.25;1.77;;;;;;;18.84;76.85;100964.66;4856544;29;20049;-75
2023/05/17 09:53:30;;;;;;;3.38;1.75;;;;;;;18.82;77.78;100970.78;4863365;29;20077;-75
2023/05/17 09:56:00;;;;;;;2.25;1.80;;;;;;;18.79;77.36;100976.03;4863175;29;20048;-76
2023/05/17 09:58:32;;;;;;;3.63;1.58;;;;;;;18.79;77.14;100978.66;4867955;29;20049;-76
2023/05/17 10:01:03;;;;;;;3.83;1.70;;;;;;;18.77;77.24;100972.53;4857747;29;20058;-76
2023/05/17 10:03:34;;;;;;;3.58;2.00;;;;;;;18.74;77.32;100962.03;4864202;29;20088;-77
2023/05/17 10:06:04;;;;;;;7.43;1.92;;;;;;;18.67;78.20;100968.13;4864440;29;20042;-76
2023/05/17 10:08:35;;;;;;;5.55;1.85;;;;;;;18.60;77.94;100970.75;4858167;29;20065;-76
2023/05/17 10:11:08;;;;;;;1.83;1.63;;;;;;;18.55;78.29;100962.00;4863517;29;20504;-76
2023/05/17 10:13:42;;;;;;;3.25;1.60;;;;;;;18.51;78.61;100975.09;4862352;29;20153;-76
2023/05/17 10:16:12;;;;;;;5.78;2.00;;;;;;;18.45;79.43;100970.75;4857055;29;20496;-74
2023/05/17 10:18:41;;;;;;;3.65;2.20;;;;;;;18.41;78.68;100963.75;4861791;29;20053;-76
2023/05/17 10:21:11;;;;;;;3.50;1.98;;;;;;;18.37;78.93;100969.84;4855877;29;20078;-77
2023/05/17 10:23:44;;;;;;;5.32;2.60;;;;;;;18.28;79.55;100972.47;4849312;29;20054;-76
2023/05/17 10:26:14;;;;;;;5.32;1.95;;;;;;;18.24;80.82;100975.97;4858919;29;20077;-77
2023/05/17 10:28:45;;;;;;;2.58;1.80;;;;;;;18.17;82.02;100970.72;4865536;29;20520;-76
2023/05/17 10:31:14;;;;;;;3.63;1.77;;;;;;;18.12;81.55;100977.69;4857675;29;20201;-77
2023/05/17 10:33:44;;;;;;;3.97;1.83;;;;;;;18.11;81.28;100981.16;4857674;29;20052;-77
2023/05/17 10:36:14;;;;;;;5.75;1.70;;;;;;;18.10;81.60;100979.44;4854482;29;20508;-76
2023/05/17 10:38:46;;;;;;;5.80;1.80;;;;;;;18.08;81.28;100981.19;4850229;29;20049;-76
2023/05/17 10:41:17;;;;;;;4.50;1.85;;;;;;;18.06;81.06;100972.44;4859112;29;20053;-76
2023/05/17 10:43:46;;;;;;;4.55;2.00;;;;;;;18.05;81.22;100983.81;4860227;29;20053;-75
2023/05/17 10:46:20;;;;;;;7.55;2.15;;;;;;;18.04;80.54;100979.41;4857611;29;20084;-75
2023/05/17 10:48:51;;;;;;;2.90;1.85;;;;;;;18.02;81.23;100981.16;4860025;29;20170;-75
2023/05/17 10:51:24;;;;;;;6.18;2.47;;;;;;;17.98;80.37;100985.53;4858691;29;20089;-75
2023/05/17 10:54:10;;;;;;;6.70;2.00;;;;;;;17.95;80.53;100979.41;4857656;29;20480;-75
2023/05/17 10:56:42;;;;;;;6.60;2.10;;;;;;;17.93;80.75;100978.50;4847555;29;20077;-75
2023/05/17 10:59:20;;;;;;;4.63;1.80;;;;;;;17.88;80.72;100978.50;4857417;29;20049;-75
2023/05/17 11:01:58;;;;;;;3.03;1.75;;;;;;;17.81;81.70;100981.97;4856577;29;20074;-76
2023/05/17 11:04:28;;;;;;;4.95;1.85;;;;;;;17.74;82.28;100978.41;4857909;29;20106;-76
2023/05/17 11:07:28;;;;;;;6.13;2.45;;;;;;;17.69;81.32;100977.53;4857861;29;20466;-77
2023/05/17 11:10:09;;;;;;;4.35;1.90;;;;;;;17.64;81.89;100976.66;4855593;29;20061;-76
2023/05/17 11:12:40;;;;;;;3.35;1.83;;;;;;;17.59;82.50;100973.13;4851366;29;20061;-77
2023/05/17 11:15:10;;;;;;;2.53;2.00;;;;;;;17.57;81.77;100983.59;4843490;29;20050;-76
2023/05/17 11:17:52;;;;;;;4.15;1.88;;;;;;;17.54;83.05;100991.41;4841714;29;20129;-76
2023/05/17 11:20:36;;;;;;;3.95;1.58;;;;;;;17.49;84.29;100987.03;4847605;29;20048;-76
2023/05/17 11:23:06;;;;;;;2.75;1.83;;;;;;;17.47;84.20;100984.41;4847062;29;20093;-77
2023/05/17 11:25:39;;;;;;;3.38;1.75;;;;;;;17.46;83.83;100990.53;4844648;29;20061;-76
2023/05/17 11:28:09;;;;;;;2.88;1.88;;;;;;;17.45;84.10;100982.66;4854987;29;20045;-76
2023/05/17 11:30:49;;;;;;;2.40;1.70;;;;;;;17.42;83.94;100973.06;4854747;29;20054;-75
2023/05/17 11:33:19;;;;;;;2.70;1.40;;;;;;;17.40;84.19;100969.56;4863618;29;20500;-75
2023/05/17 11:35:48;;;;;;;3.33;2.28;;;;;;;17.36;84.15;100973.91;4848173;29;20050;-77
2023/05/17 11:38:19;;;;;;;4.13;1.90;;;;;;;17.33;85.03;100971.25;4861006;29;20125;-76